Country
Station

 

Weather  for  Pine Ridge, Pine Ridge Airport  -  United States    United States

  
-4 °C (25 °F)
    
 
 

Current METAR for Pine Ridge, Pine Ridge Airport is :

KIEN 121452Z AUTO 00000KT 10SM CLR M04/M06 A2996 RMK AO2 SLP172 T10391061 56005

 

This is a report for Pine Ridge, Pine Ridge Airport - United States.
 
The report was made 8 minutes ago, at 14:52 UTC .
The wind was calm.
 
The temperature was -4 °C (25 °F), with a dew-point at -6 °C (21 °F).
The atmospheric pressure was 1015 hPa (29.96 inHg).
The relative humidity was 85.9%.
 
The sky was clear.
 
The overall visibility was 16.1 kilometers (10.0 miles).
 

 
 
 
 

Country :   A   B   C   D   E   F   G   H   I   J   K   L   M   N   O   P   Q   R   S   T   U   V   W   Y   Z

 

Site Info  |  Disclaimer  |  Credits  |  Privacy
Contact us  |  Add to favorites
© 2013-2019 METARs - All rights reserved